Time;durP1;ratioP1;P1;durP2;ratioP2;P2;SDS_P1;SDS_P2;PMS_P1;PMS_P2;Temp;Humidity;BMP_temperature;BMP_pressure;BME280_temperature;BME280_humidity;BME280_pressure;Samples;Min_cycle;Max_cycle;Signal;HPM_P1;HPM_P2
2021/03/11 00:00:24;;;;;;;84.77;32.90;;;;;;;-2.26;50.88;99077.69;123790;1102;64972;-79
2021/03/11 00:03:10;;;;;;;91.50;30.53;;;;;;;-2.30;50.46;99078.63;123759;1102;64915;-77
2021/03/11 00:05:38;;;;;;;79.60;30.20;;;;;;;-2.32;50.54;99077.80;123800;1102;64921;-77
2021/03/11 00:08:05;;;;;;;85.40;30.70;;;;;;;-2.33;51.00;99073.47;123872;1102;64969;-77
2021/03/11 00:10:33;;;;;;;75.40;30.40;;;;;;;-2.36;51.09;99076.99;123767;1102;64969;-78
2021/03/11 00:13:00;;;;;;;75.00;29.43;;;;;;;-2.39;50.52;99063.98;123837;1102;64927;-78
2021/03/11 00:15:26;;;;;;;71.97;29.43;;;;;;;-2.38;50.70;99065.70;123857;1102;64953;-76
2021/03/11 00:17:54;;;;;;;75.30;29.90;;;;;;;-2.39;51.54;99065.75;123390;1102;64947;-78
2021/03/11 00:20:23;;;;;;;71.27;29.57;;;;;;;-2.40;50.93;99062.27;123465;1102;65087;-81
2021/03/11 00:22:50;;;;;;;74.33;29.40;;;;;;;-2.40;51.35;99066.64;123403;1102;64844;-80
2021/03/11 00:25:19;;;;;;;79.73;31.80;;;;;;;-2.42;51.09;99056.19;123484;1102;64990;-78
2021/03/11 00:27:47;;;;;;;78.67;31.43;;;;;;;-2.47;51.50;99050.22;123875;1102;64930;-77
2021/03/11 00:30:16;;;;;;;81.03;35.10;;;;;;;-2.52;51.75;99042.45;123768;1102;64939;-76
2021/03/11 00:32:43;;;;;;;79.10;33.17;;;;;;;-2.55;51.53;99042.49;123832;1102;64946;-79
2021/03/11 00:35:11;;;;;;;78.93;35.20;;;;;;;-2.54;52.09;99036.41;123733;1102;65352;-76
2021/03/11 00:37:39;;;;;;;72.03;32.67;;;;;;;-2.51;51.23;99036.33;123488;1101;64946;-78
2021/03/11 00:40:08;;;;;;;71.80;34.60;;;;;;;-2.50;51.34;99030.20;123833;1102;64944;-77
2021/03/11 00:42:35;;;;;;;70.17;30.90;;;;;;;-2.47;52.03;99031.91;123781;1101;64981;-76
2021/03/11 00:45:03;;;;;;;70.10;32.63;;;;;;;-2.48;52.36;99033.66;123419;1102;64879;-79
2021/03/11 00:47:30;;;;;;;70.90;30.35;;;;;;;-2.49;51.74;99031.91;123714;1102;65020;-78
2021/03/11 00:49:56;;;;;;;64.67;28.67;;;;;;;-2.50;52.02;99030.20;123785;1102;64915;-77
2021/03/11 00:52:23;;;;;;;63.70;28.97;;;;;;;-2.50;52.47;99027.58;123802;1102;64880;-78
2021/03/11 00:54:49;;;;;;;63.83;28.67;;;;;;;-2.50;52.17;99022.35;123439;1102;64984;-79
2021/03/11 00:57:15;;;;;;;60.38;27.80;;;;;;;-2.50;51.75;99019.73;123787;1102;64891;-79
2021/03/11 00:59:42;;;;;;;67.53;28.00;;;;;;;-2.52;52.51;99020.67;123395;1102;65017;-81
2021/03/11 01:02:08;;;;;;;61.80;27.97;;;;;;;-2.52;52.21;99013.69;123464;1102;64877;-78
2021/03/11 01:04:35;;;;;;;63.83;29.57;;;;;;;-2.51;51.74;99011.94;123794;1102;64841;-77
2021/03/11 01:07:03;;;;;;;61.53;27.30;;;;;;;-2.48;52.64;99011.89;123410;1102;64950;-78
2021/03/11 01:09:29;;;;;;;63.73;29.33;;;;;;;-2.45;52.38;99004.83;123498;1102;65356;-77
2021/03/11 01:11:55;;;;;;;73.73;29.90;;;;;;;-2.42;52.55;99010.87;123805;1102;65126;-76
2021/03/11 01:14:22;;;;;;;59.05;27.65;;;;;;;-2.42;53.02;98993.42;123783;1102;64920;-76
2021/03/11 01:16:50;;;;;;;65.62;30.60;;;;;;;-2.36;53.14;98990.69;123506;1102;64956;-78
2021/03/11 01:19:16;;;;;;;83.13;30.93;;;;;;;-2.30;53.02;98989.70;123886;1102;64940;-77
2021/03/11 01:21:43;;;;;;;61.27;29.10;;;;;;;-2.26;52.99;98981.76;123802;1102;65359;-81
2021/03/11 01:24:10;;;;;;;68.00;30.53;;;;;;;-2.21;52.34;98977.30;123697;1102;65097;-77
2021/03/11 01:26:39;;;;;;;67.80;31.20;;;;;;;-2.15;53.17;98967.59;123711;1102;64895;-79
2021/03/11 01:29:06;;;;;;;71.20;28.70;;;;;;;-2.09;53.02;98963.08;123799;1102;65011;-77
2021/03/11 01:31:32;;;;;;;70.03;28.77;;;;;;;-2.05;52.44;98958.63;123799;1103;64886;-79
2021/03/11 01:33:59;;;;;;;65.73;29.17;;;;;;;-2.00;53.30;98956.77;123465;1102;64897;-77
2021/03/11 01:36:25;;;;;;;59.80;28.95;;;;;;;-1.99;53.55;98951.49;123452;1102;64895;-76
2021/03/11 01:38:51;;;;;;;63.58;28.62;;;;;;;-1.98;52.89;98949.73;123852;1102;65013;-78
2021/03/11 01:41:18;;;;;;;61.60;28.50;;;;;;;-1.91;53.68;98941.73;123717;1102;65389;-78
2021/03/11 01:43:44;;;;;;;60.15;27.35;;;;;;;-1.85;53.17;98937.22;123815;1102;64914;-80
2021/03/11 01:46:11;;;;;;;58.47;27.10;;;;;;;-1.81;53.51;98931.02;123426;1103;64930;-80
2021/03/11 01:48:37;;;;;;;63.10;28.07;;;;;;;-1.78;52.89;98921.35;123793;1102;64934;-77
2021/03/11 01:51:04;;;;;;;55.67;26.07;;;;;;;-1.74;53.67;98917.73;123428;1102;64997;-77
2021/03/11 01:53:31;;;;;;;60.00;28.33;;;;;;;-1.72;52.97;98915.97;123443;1103;64944;-77
2021/03/11 01:55:58;;;;;;;55.67;27.20;;;;;;;-1.68;53.21;98906.26;123882;1102;64893;-78
2021/03/11 01:58:27;;;;;;;57.37;27.80;;;;;;;-1.65;52.73;98901.82;123806;1102;64911;-82
2021/03/11 02:00:54;;;;;;;57.47;27.83;;;;;;;-1.61;53.99;98888.63;123433;1102;64997;-81
2021/03/11 02:03:21;;;;;;;60.23;27.10;;;;;;;-1.55;53.89;98894.57;123839;1102;64889;-79
2021/03/11 02:05:47;;;;;;;54.37;26.03;;;;;;;-1.49;53.10;98886.55;123799;1101;64892;-76
2021/03/11 02:08:14;;;;;;;49.87;25.00;;;;;;;-1.44;54.03;98882.06;123790;1102;64959;-83
2021/03/11 02:10:41;;;;;;;54.23;26.07;;;;;;;-1.37;53.24;98878.38;123790;1102;65351;-81
2021/03/11 02:13:26;;;;;;;56.73;25.63;;;;;;;-1.30;53.05;98870.35;123735;1102;65549;-79
2021/03/11 02:16:08;;;;;;;54.90;26.77;;;;;;;-1.25;53.03;98873.72;123793;1102;65000;-79
2021/03/11 02:18:39;;;;;;;48.43;24.27;;;;;;;-1.22;53.24;98874.47;123382;1102;65310;-80
2021/03/11 02:21:10;;;;;;;49.30;23.67;;;;;;;-1.18;52.67;98881.36;123794;1103;64892;-78
2021/03/11 02:24:00;;;;;;;51.73;25.67;;;;;;;-1.16;53.09;98878.69;123817;1102;64898;-77
2021/03/11 02:26:45;;;;;;;53.77;23.70;;;;;;;-1.14;52.95;98867.28;123698;1102;65025;-78
2021/03/11 02:29:22;;;;;;;53.45;25.40;;;;;;;-1.12;53.20;98864.61;123823;1102;64962;-79
2021/03/11 02:31:50;;;;;;;50.13;24.77;;;;;;;-1.10;52.97;98868.89;123800;1102;65381;-78
2021/03/11 02:34:20;;;;;;;57.60;25.33;;;;;;;-1.07;52.93;98870.59;123736;1102;64915;-81
2021/03/11 02:36:51;;;;;;;56.97;25.17;;;;;;;-1.06;53.04;98864.44;123442;1101;64918;-78
2021/03/11 02:39:21;;;;;;;55.37;25.23;;;;;;;-1.10;53.41;98858.41;123745;1102;65074;-79
2021/03/11 02:41:54;;;;;;;49.00;23.83;;;;;;;-1.11;52.99;98855.84;123474;1102;65321;-80
2021/03/11 02:44:23;;;;;;;43.70;23.45;;;;;;;-1.13;53.72;98852.41;123419;1102;64914;-80
2021/03/11 02:46:51;;;;;;;49.83;24.57;;;;;;;-1.13;53.85;98849.80;123511;1102;64941;-79
2021/03/11 02:49:21;;;;;;;50.63;23.50;;;;;;;-1.15;53.40;98843.72;123810;1102;64914;-79
2021/03/11 02:51:51;;;;;;;50.37;24.90;;;;;;;-1.16;53.68;98837.62;123719;1102;64920;-77
2021/03/11 02:54:19;;;;;;;51.10;25.07;;;;;;;-1.16;53.52;98831.52;123716;1102;65001;-76
2021/03/11 02:56:47;;;;;;;53.23;24.23;;;;;;;-1.19;53.49;98826.38;123793;1102;64943;-78
2021/03/11 02:59:15;;;;;;;47.33;24.40;;;;;;;-1.20;53.86;98820.28;123865;1101;65351;-78
2021/03/11 03:01:42;;;;;;;53.13;24.33;;;;;;;-1.21;53.67;98813.34;123519;1102;64870;-78
2021/03/11 03:04:12;;;;;;;52.63;25.97;;;;;;;-1.21;53.97;98812.44;123537;1102;64953;-77
2021/03/11 03:06:41;;;;;;;52.40;25.20;;;;;;;-1.23;53.29;98804.64;123373;1102;64930;-79
2021/03/11 03:09:09;;;;;;;53.23;25.97;;;;;;;-1.22;53.31;98808.11;123771;1101;64918;-78
2021/03/11 03:11:37;;;;;;;51.97;26.77;;;;;;;-1.22;53.12;98790.63;123764;1102;65043;-78
2021/03/11 03:14:07;;;;;;;51.40;26.70;;;;;;;-1.21;53.46;98781.00;123738;1102;64910;-82
2021/03/11 03:16:36;;;;;;;54.00;27.55;;;;;;;-1.18;53.80;98778.31;123718;1102;65036;-81
2021/03/11 03:19:04;;;;;;;54.80;27.25;;;;;;;-1.17;53.91;98769.55;123759;1102;65056;-78
2021/03/11 03:21:32;;;;;;;57.47;28.13;;;;;;;-1.12;53.93;98767.66;123813;1102;64899;-79
2021/03/11 03:23:59;;;;;;;48.47;26.53;;;;;;;-1.07;54.14;98763.14;123704;1102;65023;-79
2021/03/11 03:26:25;;;;;;;51.10;27.13;;;;;;;-0.99;53.77;98755.89;123437;1103;64910;-79
2021/03/11 03:28:52;;;;;;;52.87;26.93;;;;;;;-0.89;53.65;98749.48;123801;1102;64934;-78
2021/03/11 03:31:18;;;;;;;55.80;26.50;;;;;;;-0.79;54.22;98749.18;123775;1102;65566;-77
2021/03/11 03:33:45;;;;;;;54.00;24.47;;;;;;;-0.72;53.77;98742.83;123812;1102;64949;-80
2021/03/11 03:36:11;;;;;;;46.07;24.30;;;;;;;-0.64;54.49;98725.94;123440;1102;64889;-81
2021/03/11 03:38:38;;;;;;;54.67;23.73;;;;;;;-0.53;53.39;98727.37;123758;1102;64921;-79
2021/03/11 03:41:04;;;;;;;50.50;24.73;;;;;;;-0.44;53.74;98717.45;123716;1102;65027;-76
2021/03/11 03:43:35;;;;;;;51.17;24.10;;;;;;;-0.35;54.27;98711.88;123771;1102;64899;-79
2021/03/11 03:46:14;;;;;;;43.43;21.27;;;;;;;-0.30;53.90;98709.11;123817;1102;64991;-78
2021/03/11 03:48:53;;;;;;;46.17;21.83;;;;;;;-0.26;54.26;98708.08;123804;1102;64953;-76
2021/03/11 03:51:29;;;;;;;43.60;21.33;;;;;;;-0.19;54.06;98706.98;123499;1103;65020;-79
2021/03/11 03:54:08;;;;;;;44.45;22.95;;;;;;;-0.17;54.16;98693.80;123818;1102;65170;-77
2021/03/11 03:56:38;;;;;;;44.97;21.70;;;;;;;-0.13;54.14;98696.25;123496;1102;64838;-77
2021/03/11 03:59:17;;;;;;;43.93;23.27;;;;;;;-0.07;54.38;98684.68;123509;1105;64979;-78
2021/03/11 04:01:45;;;;;;;40.60;21.00;;;;;;;-0.03;54.60;98686.30;123468;1102;65001;-76
2021/03/11 04:04:13;;;;;;;40.35;20.80;;;;;;;-0.02;54.44;98678.36;123752;1102;64959;-81
2021/03/11 04:06:41;;;;;;;43.57;22.50;;;;;;;0.02;53.92;98681.75;123839;1102;65058;-76
2021/03/11 04:09:12;;;;;;;44.23;21.40;;;;;;;0.05;53.69;98679.00;123839;1102;64981;-78
2021/03/11 04:11:42;;;;;;;39.30;21.57;;;;;;;0.08;54.13;98676.28;123743;1102;65227;-78
2021/03/11 04:14:10;;;;;;;42.00;21.67;;;;;;;0.10;53.97;98677.08;123873;1102;65106;-79
2021/03/11 04:16:39;;;;;;;46.90;21.95;;;;;;;0.16;54.74;98665.50;123873;1102;64982;-76
2021/03/11 04:19:07;;;;;;;43.63;22.07;;;;;;;0.21;53.80;98661.80;123725;1102;64937;-77
2021/03/11 04:21:34;;;;;;;40.50;21.57;;;;;;;0.25;54.60;98660.78;123794;1102;64911;-78
2021/03/11 04:24:02;;;;;;;43.67;22.17;;;;;;;0.29;54.15;98655.41;123519;1102;64955;-78
2021/03/11 04:26:29;;;;;;;45.73;22.03;;;;;;;0.33;54.52;98651.76;123732;1102;64943;-77
2021/03/11 04:28:58;;;;;;;47.95;23.75;;;;;;;0.34;54.36;98654.32;123783;1102;64927;-78
2021/03/11 04:31:28;;;;;;;40.03;21.70;;;;;;;0.36;53.84;98641.12;123811;1102;64975;-80
2021/03/11 04:33:57;;;;;;;46.33;21.53;;;;;;;0.40;54.64;98647.98;123866;1102;64918;-80
2021/03/11 04:36:26;;;;;;;44.80;21.73;;;;;;;0.43;53.89;98642.60;123773;1102;65052;-78
2021/03/11 04:38:53;;;;;;;43.87;21.43;;;;;;;0.43;53.94;98624.21;123768;1102;64981;-78
2021/03/11 04:41:21;;;;;;;51.73;22.27;;;;;;;0.44;54.97;98629.40;123837;1102;64924;-79
2021/03/11 04:43:48;;;;;;;45.57;21.97;;;;;;;0.47;54.01;98623.19;123749;1102;64924;-78
2021/03/11 04:46:18;;;;;;;44.63;22.17;;;;;;;0.49;54.33;98621.35;123811;1102;64969;-77
2021/03/11 04:48:46;;;;;;;39.35;21.65;;;;;;;0.49;53.95;98614.33;123355;1102;64896;-81
2021/03/11 04:51:16;;;;;;;37.47;21.90;;;;;;;0.50;54.52;98604.67;123750;1102;64975;-78
2021/03/11 04:53:43;;;;;;;62.03;27.87;;;;;;;0.51;53.89;98606.41;123416;1102;64959;-80
2021/03/11 04:56:11;;;;;;;51.37;22.87;;;;;;;0.54;54.81;98603.65;124000;1102;64854;-79
2021/03/11 04:58:40;;;;;;;41.13;21.23;;;;;;;0.57;54.29;98605.28;123486;1105;65063;-80
2021/03/11 05:01:16;;;;;;;61.20;22.50;;;;;;;0.61;53.81;98601.64;123541;1102;64937;-76
2021/03/11 05:03:44;;;;;;;55.75;22.65;;;;;;;0.65;54.96;98596.20;123979;1102;65339;-79
2021/03/11 05:06:12;;;;;;;58.03;24.20;;;;;;;0.71;54.45;98584.60;123569;1102;64935;-81
2021/03/11 05:08:41;;;;;;;61.40;24.57;;;;;;;0.74;54.68;98589.72;123594;1102;64934;-76
2021/03/11 05:11:10;;;;;;;51.30;23.10;;;;;;;0.78;54.30;98592.17;123776;1102;64930;-76
2021/03/11 05:13:37;;;;;;;45.57;23.20;;;;;;;0.86;54.71;98577.86;123797;1102;64978;-76
2021/03/11 05:16:05;;;;;;;50.43;23.67;;;;;;;0.91;54.39;98573.28;123780;1102;64892;-78
2021/03/11 05:18:32;;;;;;;44.83;22.23;;;;;;;0.94;54.45;98570.52;123854;1102;65073;-78
2021/03/11 05:20:58;;;;;;;44.47;22.70;;;;;;;0.97;54.31;98567.77;123529;1102;64845;-76
2021/03/11 05:23:25;;;;;;;44.60;21.53;;;;;;;1.01;54.51;98559.67;123460;1102;64956;-83
2021/03/11 05:25:53;;;;;;;43.57;20.87;;;;;;;1.08;54.69;98547.13;123793;1102;65080;-77
2021/03/11 05:28:20;;;;;;;45.53;21.37;;;;;;;1.12;54.39;98542.61;123855;1102;64892;-77
2021/03/11 05:30:47;;;;;;;43.43;21.40;;;;;;;1.17;54.88;98546.76;123598;1102;64912;-78
2021/03/11 05:33:14;;;;;;;36.90;20.20;;;;;;;1.24;54.85;98545.57;123858;1102;65001;-80
2021/03/11 05:35:42;;;;;;;51.83;21.03;;;;;;;1.31;54.62;98539.13;123762;1102;65003;-78
2021/03/11 05:38:09;;;;;;;41.45;20.65;;;;;;;1.33;54.93;98532.02;123528;1105;64987;-79
2021/03/11 05:40:37;;;;;;;45.60;21.97;;;;;;;1.34;55.13;98532.89;123793;1102;64958;-80
2021/03/11 05:43:06;;;;;;;62.13;21.33;;;;;;;1.37;54.36;98521.38;123863;1102;64838;-80
2021/03/11 05:45:33;;;;;;;53.30;23.10;;;;;;;1.40;54.69;98518.59;123789;1102;65045;-81
2021/03/11 05:48:01;;;;;;;57.13;20.10;;;;;;;1.43;54.92;98510.58;123444;1102;65001;-77
2021/03/11 05:50:29;;;;;;;44.43;19.27;;;;;;;1.48;54.58;98506.83;123857;1102;64953;-77
2021/03/11 05:52:57;;;;;;;45.45;21.30;;;;;;;1.55;55.21;98502.16;123463;1102;64901;-78
2021/03/11 05:55:25;;;;;;;47.90;21.90;;;;;;;1.60;55.01;98493.13;123862;1102;64888;-82
2021/03/11 05:57:52;;;;;;;48.13;22.87;;;;;;;1.65;54.82;98482.38;123774;1102;64930;-80
2021/03/11 06:00:20;;;;;;;49.80;20.40;;;;;;;1.70;55.19;98482.17;123795;1102;65004;-78
2021/03/11 06:02:55;;;;;;;51.10;23.90;;;;;;;1.74;54.53;98460.92;123826;1102;64975;-77
2021/03/11 06:05:22;;;;;;;58.30;21.82;;;;;;;1.81;54.69;98457.08;123879;1102;64966;-77
2021/03/11 06:07:49;;;;;;;46.03;21.67;;;;;;;1.89;55.18;98469.87;123831;1102;64891;-78
2021/03/11 06:10:18;;;;;;;43.90;22.25;;;;;;;1.94;54.99;98467.89;123407;1102;65001;-79
2021/03/11 06:12:46;;;;;;;49.73;23.47;;;;;;;2.00;55.11;98454.44;123833;1102;64902;-78
2021/03/11 06:15:27;;;;;;;46.55;22.15;;;;;;;2.05;55.18;98448.96;123889;1102;65029;-82
2021/03/11 06:17:55;;;;;;;41.90;21.20;;;;;;;2.11;54.75;98443.41;123790;1102;64864;-77
2021/03/11 06:20:22;;;;;;;38.87;20.43;;;;;;;2.16;54.48;98439.63;123891;1102;65004;-82
2021/03/11 06:22:48;;;;;;;41.00;21.10;;;;;;;2.21;54.64;98439.38;123413;1102;65087;-80
2021/03/11 06:25:16;;;;;;;41.13;21.00;;;;;;;2.28;54.60;98422.35;123422;1102;65356;-80
2021/03/11 06:27:44;;;;;;;45.37;19.27;;;;;;;2.33;54.54;98415.08;123444;1102;65057;-81
2021/03/11 06:30:33;;;;;;;41.35;19.20;;;;;;;2.37;55.13;98411.38;123453;1102;64918;-78
2021/03/11 06:33:01;;;;;;;50.93;22.13;;;;;;;2.43;54.44;98413.72;123861;1102;64911;-80
2021/03/11 06:35:28;;;;;;;37.13;20.07;;;;;;;2.48;54.74;98417.88;123478;1102;65078;-77
2021/03/11 06:37:55;;;;;;;37.23;19.80;;;;;;;2.54;54.77;98407.89;123374;1102;65249;-81
2021/03/11 06:40:24;;;;;;;42.17;19.87;;;;;;;2.61;54.29;98392.65;123823;1102;64975;-79
2021/03/11 06:42:52;;;;;;;41.73;19.73;;;;;;;2.67;54.86;98400.22;123818;1102;64917;-78
2021/03/11 06:45:18;;;;;;;49.90;22.77;;;;;;;2.73;54.85;98381.45;123869;1102;65000;-78
2021/03/11 06:47:45;;;;;;;51.17;20.97;;;;;;;2.80;54.86;98381.98;123793;1102;65054;-78
2021/03/11 06:50:11;;;;;;;63.77;22.77;;;;;;;2.88;54.95;98378.05;123499;1102;64934;-79
2021/03/11 06:52:38;;;;;;;45.07;22.70;;;;;;;2.95;54.85;98368.88;123435;1102;64873;-79
2021/03/11 06:55:08;;;;;;;41.30;20.70;;;;;;;3.04;54.97;98364.89;123486;1102;64895;-82
2021/03/11 06:57:37;;;;;;;45.37;20.63;;;;;;;3.11;54.76;98355.72;123494;1102;64957;-80
2021/03/11 07:00:13;;;;;;;43.50;22.43;;;;;;;3.16;54.92;98353.70;123810;1102;65011;-83
2021/03/11 07:03:00;;;;;;;51.17;25.10;;;;;;;3.20;54.84;98357.04;123972;1102;64834;-77
2021/03/11 07:05:28;;;;;;;50.43;22.43;;;;;;;3.21;54.86;98349.03;123463;1102;64981;-78
2021/03/11 07:08:03;;;;;;;61.77;20.33;;;;;;;3.25;54.79;98352.38;123571;1102;64857;-80
2021/03/11 07:10:30;;;;;;;42.53;20.43;;;;;;;3.27;54.93;98349.65;123650;1102;64941;-78
2021/03/11 07:12:59;;;;;;;51.07;19.80;;;;;;;3.29;54.96;98359.17;123386;1105;65173;-79
2021/03/11 07:15:33;;;;;;;77.73;21.87;;;;;;;3.32;55.23;98358.17;123473;1102;65422;-82
2021/03/11 07:18:01;;;;;;;60.00;21.20;;;;;;;3.35;54.99;98364.13;123381;1102;64929;-78
2021/03/11 07:20:33;;;;;;;51.30;20.97;;;;;;;3.39;55.26;98359.55;123371;1102;64873;-78
2021/03/11 07:23:11;;;;;;;42.80;21.10;;;;;;;3.44;55.48;98344.31;123736;1102;64943;-79
2021/03/11 07:25:43;;;;;;;42.37;20.87;;;;;;;3.50;55.42;98359.83;123468;1104;64982;-79
2021/03/11 07:28:30;;;;;;;40.80;18.10;;;;;;;3.59;55.05;98361.95;123470;1102;65191;-82
2021/03/11 07:30:59;;;;;;;44.17;21.47;;;;;;;3.66;55.16;98355.39;123827;1101;64838;-79
2021/03/11 07:33:29;;;;;;;44.13;20.77;;;;;;;3.72;54.97;98351.56;123504;1102;65165;-84
2021/03/11 07:35:59;;;;;;;44.60;21.65;;;;;;;3.77;55.24;98341.59;123712;1102;64915;-82
2021/03/11 07:38:28;;;;;;;41.70;21.20;;;;;;;3.80;55.03;98341.41;123411;1102;64901;-78
2021/03/11 07:41:00;;;;;;;43.25;23.50;;;;;;;3.80;55.32;98334.34;123509;1102;64905;-80
2021/03/11 07:43:30;;;;;;;45.63;23.07;;;;;;;3.83;55.32;98332.48;123882;1102;64955;-82
2021/03/11 07:46:00;;;;;;;54.37;21.97;;;;;;;3.78;55.39;98320.38;123846;1102;64943;-78
2021/03/11 07:48:27;;;;;;;49.30;24.35;;;;;;;3.74;55.43;98324.12;123828;1102;65017;-78
2021/03/11 07:50:55;;;;;;;40.13;22.87;;;;;;;3.68;55.83;98319.17;123792;1102;64953;-78
2021/03/11 07:53:24;;;;;;;74.73;26.17;;;;;;;3.65;55.80;98316.72;123484;1102;64902;-78
2021/03/11 07:55:54;;;;;;;42.53;24.17;;;;;;;3.61;55.78;98309.05;123861;1102;64921;-78
2021/03/11 07:58:23;;;;;;;46.30;26.07;;;;;;;3.57;56.06;98311.02;123810;1102;64917;-79
2021/03/11 08:00:51;;;;;;;45.83;24.37;;;;;;;3.57;56.02;98296.98;123834;1102;64914;-80
2021/03/11 08:03:25;;;;;;;46.97;24.63;;;;;;;3.57;55.70;98274.06;123866;1102;65307;-76
2021/03/11 08:05:52;;;;;;;41.73;22.00;;;;;;;3.56;56.19;98261.77;123738;1102;64908;-77
2021/03/11 08:08:31;;;;;;;43.30;24.30;;;;;;;3.56;56.13;98263.56;123752;1102;64956;-78
2021/03/11 08:11:01;;;;;;;45.70;23.57;;;;;;;3.56;56.34;98250.37;123429;1102;65355;-77
2021/03/11 08:13:31;;;;;;;42.90;23.73;;;;;;;3.60;55.97;98239.56;123747;1102;64930;-78
2021/03/11 08:16:18;;;;;;;63.70;25.37;;;;;;;3.60;56.23;98236.92;123815;1102;65103;-80
2021/03/11 08:18:46;;;;;;;45.63;24.20;;;;;;;3.62;56.28;98244.74;123771;1102;64947;-78
2021/03/11 08:21:25;;;;;;;50.17;26.27;;;;;;;3.67;56.30;98235.63;123721;1102;64955;-80
2021/03/11 08:23:57;;;;;;;49.33;23.80;;;;;;;3.74;56.02;98213.20;123821;1102;64921;-78
2021/03/11 08:26:44;;;;;;;45.45;24.35;;;;;;;3.80;56.37;98219.92;123747;1102;64934;-81
2021/03/11 08:29:19;;;;;;;43.97;24.27;;;;;;;3.82;56.05;98219.83;123748;1102;64908;-78
2021/03/11 08:31:47;;;;;;;48.00;23.30;;;;;;;3.87;56.29;98202.78;123773;1102;64925;-78
2021/03/11 08:34:32;;;;;;;46.47;22.37;;;;;;;3.90;56.33;98194.69;123801;1102;65000;-81
2021/03/11 08:37:19;;;;;;;;;;;;;;;3.91;56.33;98193.75;123861;1100;64891;-78
2021/03/11 08:39:47;;;;;;;42.50;22.10;;;;;;;3.94;55.90;98188.27;123808;1102;64936;-83
2021/03/11 08:42:42;;;;;;;47.10;24.65;;;;;;;3.98;56.22;98189.80;123717;1102;65013;-81
2021/03/11 08:45:09;;;;;;;47.77;22.73;;;;;;;3.99;56.39;98174.80;123880;1102;64985;-76
2021/03/11 08:47:35;;;;;;;45.87;22.93;;;;;;;3.96;56.23;98162.63;123851;1102;65491;-79
2021/03/11 08:50:03;;;;;;;44.83;23.10;;;;;;;3.94;56.51;98167.13;123549;1102;64905;-77
2021/03/11 08:52:43;;;;;;;43.97;23.73;;;;;;;3.90;56.67;98149.78;123855;1102;64838;-79
2021/03/11 08:55:39;;;;;;;40.20;21.77;;;;;;;3.89;56.53;98147.25;123705;1102;65069;-77
2021/03/11 08:58:49;;;;;;;61.63;22.85;;;;;;;3.95;56.37;98136.31;124010;1102;64896;-78
2021/03/11 09:01:29;;;;;;;42.83;22.00;;;;;;;4.06;56.15;98129.42;123419;1105;65013;-84
2021/03/11 09:03:57;;;;;;;47.07;22.80;;;;;;;4.17;56.48;98128.78;123377;1105;65000;-77
2021/03/11 09:06:53;;;;;;;49.07;23.33;;;;;;;4.23;56.31;98124.91;123447;1105;65247;-80
2021/03/11 09:09:43;;;;;;;42.17;23.03;;;;;;;4.27;56.25;98127.28;123275;1105;64965;-81
2021/03/11 09:12:22;;;;;;;51.03;23.77;;;;;;;4.27;55.87;98122.00;123394;1105;65026;-80
2021/03/11 09:14:51;;;;;;;49.93;23.53;;;;;;;4.33;56.47;98115.48;123488;1103;65202;-82
2021/03/11 09:17:20;;;;;;;42.73;22.97;;;;;;;4.38;56.41;98121.31;123443;1105;64988;-80
2021/03/11 09:19:52;;;;;;;47.33;24.83;;;;;;;4.41;55.69;98101.79;123427;1105;64950;-83
2021/03/11 09:22:28;;;;;;;47.07;21.60;;;;;;;4.45;55.82;98095.34;123437;1105;64997;-79
2021/03/11 09:24:57;;;;;;;40.15;23.15;;;;;;;4.51;56.37;98093.16;123470;1105;64933;-81
2021/03/11 09:27:28;;;;;;;38.35;21.25;;;;;;;4.55;56.23;98083.26;123387;1105;65236;-81
2021/03/11 09:29:58;;;;;;;40.70;22.85;;;;;;;4.54;56.34;98090.34;123213;1105;64972;-83
2021/03/11 09:32:36;;;;;;;46.10;23.43;;;;;;;4.52;55.88;98091.40;123408;1105;66101;-82
2021/03/11 09:35:09;;;;;;;45.87;23.80;;;;;;;4.47;56.15;98081.11;123425;1105;65103;-79
2021/03/11 09:37:46;;;;;;;49.53;24.73;;;;;;;4.47;56.40;98085.55;123424;1102;65362;-78
2021/03/11 09:40:18;;;;;;;44.80;22.70;;;;;;;4.43;56.43;98082.23;123377;1102;64988;-79
2021/03/11 09:43:06;;;;;;;51.17;24.00;;;;;;;4.43;56.24;98082.23;123713;1102;64896;-78
2021/03/11 09:45:41;;;;;;;46.53;22.23;;;;;;;4.47;56.44;98073.17;123743;1102;65017;-79
2021/03/11 09:48:11;;;;;;;51.95;22.60;;;;;;;4.54;56.50;98079.77;123780;1102;64911;-80
2021/03/11 09:50:52;;;;;;;44.13;23.63;;;;;;;4.63;56.02;98069.55;123494;1102;64837;-82
2021/03/11 09:53:20;;;;;;;42.23;22.87;;;;;;;4.73;56.69;98065.37;123484;1102;64950;-78
2021/03/11 09:55:51;;;;;;;40.73;23.00;;;;;;;4.80;57.14;98079.91;123806;1102;64888;-80
2021/03/11 09:58:19;;;;;;;42.80;24.20;;;;;;;4.82;56.81;98072.71;123741;1102;64867;-79
2021/03/11 10:00:48;;;;;;;44.47;22.67;;;;;;;4.83;56.60;98067.31;123764;1102;65003;-82
2021/03/11 10:03:29;;;;;;;46.30;23.77;;;;;;;4.84;56.76;98053.17;123742;1102;64933;-83
2021/03/11 10:05:59;;;;;;;41.47;23.00;;;;;;;4.91;56.29;98053.61;123872;1102;64924;-79
2021/03/11 10:08:29;;;;;;;40.80;23.73;;;;;;;5.01;56.99;98043.27;123822;1102;64931;-82
2021/03/11 10:11:11;;;;;;;39.10;22.17;;;;;;;5.10;56.88;98043.52;123782;1102;64931;-81
2021/03/11 10:13:41;;;;;;;42.15;23.40;;;;;;;5.11;56.90;98033.78;123387;1105;65018;-79
2021/03/11 10:16:09;;;;;;;57.30;30.37;;;;;;;5.04;57.33;98022.76;123640;1102;65388;-80
2021/03/11 10:18:36;;;;;;;46.50;26.05;;;;;;;5.00;57.00;98015.96;123865;1102;65003;-78
2021/03/11 10:21:08;;;;;;;46.67;26.00;;;;;;;5.02;57.12;98016.69;123781;1102;64941;-79
2021/03/11 10:23:38;;;;;;;44.17;25.07;;;;;;;4.97;58.09;98021.47;123527;1102;64915;-81
2021/03/11 10:26:14;;;;;;;50.63;27.27;;;;;;;4.85;57.51;98012.53;123807;1102;65052;-80
2021/03/11 10:28:42;;;;;;;40.93;24.33;;;;;;;4.83;57.06;98010.92;123777;1102;65409;-79
2021/03/11 10:31:11;;;;;;;42.40;24.23;;;;;;;4.84;58.17;98002.91;123759;1102;64905;-79
2021/03/11 10:33:40;;;;;;;47.90;26.23;;;;;;;4.86;58.44;97997.51;123698;1102;64866;-78
2021/03/11 10:36:19;;;;;;;41.90;22.10;;;;;;;4.85;58.32;97987.88;123684;1102;64991;-77
2021/03/11 10:39:04;;;;;;;70.20;24.10;;;;;;;4.87;58.11;97972.75;123687;1102;64937;-79
2021/03/11 10:41:32;;;;;;;37.77;20.40;;;;;;;4.98;58.06;97964.95;123837;1102;64891;-80
2021/03/11 10:44:16;;;;;;;36.25;20.85;;;;;;;5.07;58.47;97968.77;123493;1102;64944;-78
2021/03/11 10:46:46;;;;;;;44.23;21.87;;;;;;;5.12;57.63;97948.98;123782;1102;64978;-79
2021/03/11 10:49:14;;;;;;;43.43;23.53;;;;;;;5.24;57.80;97935.87;123367;1102;64972;-77
2021/03/11 10:51:42;;;;;;;38.57;21.87;;;;;;;5.33;57.39;97944.02;123407;1102;64928;-80
2021/03/11 10:54:32;;;;;;;34.97;19.27;;;;;;;5.39;57.98;97937.47;123466;1102;64898;-78
2021/03/11 10:57:07;;;;;;;38.83;21.13;;;;;;;5.43;57.91;97923.08;123691;1102;64949;-78
2021/03/11 10:59:55;;;;;;;37.13;22.10;;;;;;;5.47;57.89;97929.86;123401;1102;64956;-78
2021/03/11 11:02:27;;;;;;;37.55;21.65;;;;;;;5.50;57.76;97919.05;123733;1102;64905;-78
2021/03/11 11:04:58;;;;;;;33.63;19.90;;;;;;;5.61;57.63;97905.06;123467;1102;64953;-77
2021/03/11 11:07:27;;;;;;;34.27;18.03;;;;;;;5.68;57.75;97896.57;123615;1105;64987;-77
2021/03/11 11:09:54;;;;;;;27.17;15.73;;;;;;;5.69;58.21;97908.85;123375;1102;65001;-77
2021/03/11 11:12:22;;;;;;;29.90;13.85;;;;;;;5.64;58.20;97913.63;123380;1102;64920;-78
2021/03/11 11:14:50;;;;;;;37.10;15.33;;;;;;;5.64;58.63;97881.84;123634;1102;64949;-80
2021/03/11 11:17:17;;;;;;;25.13;13.27;;;;;;;5.72;58.26;97880.45;123772;1102;64927;-79
2021/03/11 11:19:45;;;;;;;25.87;12.17;;;;;;;5.76;58.37;97866.87;123783;1102;64937;-78
2021/03/11 11:22:12;;;;;;;22.17;10.33;;;;;;;5.73;58.18;97868.92;123716;1102;64881;-77
2021/03/11 11:24:41;;;;;;;38.63;12.80;;;;;;;5.65;57.61;97862.34;123394;1102;64897;-79
2021/03/11 11:27:13;;;;;;;20.25;10.60;;;;;;;5.56;58.73;97847.12;123796;1102;64940;-76
2021/03/11 11:29:40;;;;;;;60.13;13.53;;;;;;;5.54;58.56;97850.84;123671;1102;65042;-80